sensor_id;sensor_type;location;lat;lon;timestamp;P1;durP1;ratioP1;P2;durP2;ratioP2
22985;SDS011;11659;51.092;7.080;2022-08-18T00:01:38;13.33;;;12.07;;
22985;SDS011;11659;51.092;7.080;2022-08-18T00:04:05;13.73;;;12.33;;
22985;SDS011;11659;51.092;7.080;2022-08-18T00:06:31;14.00;;;12.70;;
22985;SDS011;11659;51.092;7.080;2022-08-18T00:08:57;13.57;;;12.27;;
22985;SDS011;11659;51.092;7.080;2022-08-18T00:11:26;13.23;;;11.83;;
22985;SDS011;11659;51.092;7.080;2022-08-18T00:13:54;13.57;;;12.27;;
22985;SDS011;11659;51.092;7.080;2022-08-18T00:16:20;13.63;;;12.33;;
22985;SDS011;11659;51.092;7.080;2022-08-18T00:18:46;13.77;;;12.40;;
22985;SDS011;11659;51.092;7.080;2022-08-18T00:21:12;13.63;;;12.33;;
22985;SDS011;11659;51.092;7.080;2022-08-18T00:23:38;13.80;;;12.40;;
22985;SDS011;11659;51.092;7.080;2022-08-18T00:26:04;13.27;;;11.97;;
22985;SDS011;11659;51.092;7.080;2022-08-18T00:28:32;13.00;;;11.70;;
22985;SDS011;11659;51.092;7.080;2022-08-18T00:30:58;12.47;;;11.27;;
22985;SDS011;11659;51.092;7.080;2022-08-18T00:33:24;12.97;;;11.67;;
22985;SDS011;11659;51.092;7.080;2022-08-18T00:35:50;12.93;;;11.70;;
22985;SDS011;11659;51.092;7.080;2022-08-18T00:38:16;13.53;;;12.23;;
22985;SDS011;11659;51.092;7.080;2022-08-18T00:40:43;13.17;;;11.77;;
22985;SDS011;11659;51.092;7.080;2022-08-18T00:43:11;12.77;;;11.57;;
22985;SDS011;11659;51.092;7.080;2022-08-18T00:45:43;13.33;;;12.00;;
22985;SDS011;11659;51.092;7.080;2022-08-18T00:48:09;13.63;;;12.33;;
22985;SDS011;11659;51.092;7.080;2022-08-18T00:50:37;13.27;;;11.87;;
22985;SDS011;11659;51.092;7.080;2022-08-18T00:53:08;13.37;;;12.07;;
22985;SDS011;11659;51.092;7.080;2022-08-18T00:55:37;12.83;;;11.63;;
22985;SDS011;11659;51.092;7.080;2022-08-18T00:58:06;12.43;;;11.23;;
22985;SDS011;11659;51.092;7.080;2022-08-18T01:00:35;13.17;;;11.87;;
22985;SDS011;11659;51.092;7.080;2022-08-18T01:03:05;13.00;;;11.70;;
22985;SDS011;11659;51.092;7.080;2022-08-18T01:05:42;12.87;;;11.67;;
22985;SDS011;11659;51.092;7.080;2022-08-18T01:08:12;12.87;;;11.57;;
22985;SDS011;11659;51.092;7.080;2022-08-18T01:10:40;13.63;;;12.23;;
22985;SDS011;11659;51.092;7.080;2022-08-18T01:13:07;13.53;;;12.23;;
22985;SDS011;11659;51.092;7.080;2022-08-18T01:15:33;13.17;;;11.80;;
22985;SDS011;11659;51.092;7.080;2022-08-18T01:18:00;13.27;;;11.97;;
22985;SDS011;11659;51.092;7.080;2022-08-18T01:20:55;13.67;;;12.37;;
22985;SDS011;11659;51.092;7.080;2022-08-18T01:23:48;14.07;;;12.67;;
22985;SDS011;11659;51.092;7.080;2022-08-18T01:26:16;12.97;;;11.67;;
22985;SDS011;11659;51.092;7.080;2022-08-18T01:28:43;14.07;;;12.50;;
22985;SDS011;11659;51.092;7.080;2022-08-18T01:31:11;13.63;;;12.23;;
22985;SDS011;11659;51.092;7.080;2022-08-18T01:33:52;13.73;;;12.20;;
22985;SDS011;11659;51.092;7.080;2022-08-18T01:36:19;13.67;;;12.37;;
22985;SDS011;11659;51.092;7.080;2022-08-18T01:38:49;12.87;;;11.67;;
22985;SDS011;11659;51.092;7.080;2022-08-18T01:41:17;12.30;;;11.10;;
22985;SDS011;11659;51.092;7.080;2022-08-18T01:43:45;12.30;;;11.10;;
22985;SDS011;11659;51.092;7.080;2022-08-18T01:46:12;12.07;;;10.87;;
22985;SDS011;11659;51.092;7.080;2022-08-18T01:48:44;12.00;;;10.80;;
22985;SDS011;11659;51.092;7.080;2022-08-18T01:51:12;12.10;;;10.93;;
22985;SDS011;11659;51.092;7.080;2022-08-18T01:53:39;12.67;;;11.43;;
22985;SDS011;11659;51.092;7.080;2022-08-18T01:56:06;12.70;;;11.40;;
22985;SDS011;11659;51.092;7.080;2022-08-18T01:58:33;13.00;;;11.67;;
22985;SDS011;11659;51.092;7.080;2022-08-18T02:01:00;13.87;;;12.53;;
22985;SDS011;11659;51.092;7.080;2022-08-18T02:03:27;14.47;;;13.03;;
22985;SDS011;11659;51.092;7.080;2022-08-18T02:05:57;13.60;;;12.20;;
22985;SDS011;11659;51.092;7.080;2022-08-18T02:08:25;14.10;;;12.77;;
22985;SDS011;11659;51.092;7.080;2022-08-18T02:10:52;13.37;;;12.07;;
22985;SDS011;11659;51.092;7.080;2022-08-18T02:13:19;13.03;;;11.73;;
22985;SDS011;11659;51.092;7.080;2022-08-18T02:15:45;13.17;;;11.87;;
22985;SDS011;11659;51.092;7.080;2022-08-18T02:18:14;14.03;;;12.57;;
22985;SDS011;11659;51.092;7.080;2022-08-18T02:20:42;13.87;;;12.43;;
22985;SDS011;11659;51.092;7.080;2022-08-18T02:23:08;13.30;;;11.93;;
22985;SDS011;11659;51.092;7.080;2022-08-18T02:25:34;13.10;;;11.80;;
22985;SDS011;11659;51.092;7.080;2022-08-18T02:28:00;13.97;;;12.57;;
22985;SDS011;11659;51.092;7.080;2022-08-18T02:30:27;14.17;;;12.77;;
22985;SDS011;11659;51.092;7.080;2022-08-18T02:32:53;13.33;;;11.93;;
22985;SDS011;11659;51.092;7.080;2022-08-18T02:35:22;13.67;;;12.30;;
22985;SDS011;11659;51.092;7.080;2022-08-18T02:37:48;14.13;;;12.73;;
22985;SDS011;11659;51.092;7.080;2022-08-18T02:40:14;12.13;;;10.93;;
22985;SDS011;11659;51.092;7.080;2022-08-18T02:42:41;13.10;;;11.80;;
22985;SDS011;11659;51.092;7.080;2022-08-18T02:45:07;13.17;;;11.87;;
22985;SDS011;11659;51.092;7.080;2022-08-18T02:47:35;13.13;;;11.77;;
22985;SDS011;11659;51.092;7.080;2022-08-18T02:50:01;14.07;;;12.63;;
22985;SDS011;11659;51.092;7.080;2022-08-18T02:52:28;12.23;;;11.03;;
22985;SDS011;11659;51.092;7.080;2022-08-18T02:54:56;12.73;;;11.47;;
22985;SDS011;11659;51.092;7.080;2022-08-18T02:57:22;12.97;;;11.70;;
22985;SDS011;11659;51.092;7.080;2022-08-18T02:59:48;13.23;;;11.90;;
22985;SDS011;11659;51.092;7.080;2022-08-18T03:02:14;13.77;;;12.37;;
22985;SDS011;11659;51.092;7.080;2022-08-18T03:04:42;12.77;;;11.53;;
22985;SDS011;11659;51.092;7.080;2022-08-18T03:07:08;13.27;;;11.87;;
22985;SDS011;11659;51.092;7.080;2022-08-18T03:09:34;13.50;;;12.17;;
22985;SDS011;11659;51.092;7.080;2022-08-18T03:12:01;13.33;;;11.93;;
22985;SDS011;11659;51.092;7.080;2022-08-18T03:14:28;13.50;;;12.10;;
22985;SDS011;11659;51.092;7.080;2022-08-18T03:16:55;13.23;;;11.93;;
22985;SDS011;11659;51.092;7.080;2022-08-18T03:19:22;12.60;;;11.30;;
22985;SDS011;11659;51.092;7.080;2022-08-18T03:21:49;12.83;;;11.50;;
22985;SDS011;11659;51.092;7.080;2022-08-18T03:24:17;14.87;;;12.77;;
22985;SDS011;11659;51.092;7.080;2022-08-18T03:26:43;14.63;;;13.13;;
22985;SDS011;11659;51.092;7.080;2022-08-18T03:29:10;14.40;;;12.77;;
22985;SDS011;11659;51.092;7.080;2022-08-18T03:31:36;14.27;;;12.77;;
22985;SDS011;11659;51.092;7.080;2022-08-18T03:34:04;15.43;;;13.30;;
22985;SDS011;11659;51.092;7.080;2022-08-18T03:36:33;16.83;;;14.17;;
22985;SDS011;11659;51.092;7.080;2022-08-18T03:39:02;18.93;;;14.30;;
22985;SDS011;11659;51.092;7.080;2022-08-18T03:41:30;20.80;;;16.60;;
22985;SDS011;11659;51.092;7.080;2022-08-18T03:43:57;21.77;;;17.00;;
22985;SDS011;11659;51.092;7.080;2022-08-18T03:46:23;19.67;;;16.50;;
22985;SDS011;11659;51.092;7.080;2022-08-18T03:48:49;19.50;;;16.67;;
22985;SDS011;11659;51.092;7.080;2022-08-18T03:51:18;24.53;;;19.60;;
22985;SDS011;11659;51.092;7.080;2022-08-18T03:53:46;24.70;;;18.37;;
22985;SDS011;11659;51.092;7.080;2022-08-18T03:56:15;24.63;;;18.37;;
22985;SDS011;11659;51.092;7.080;2022-08-18T03:58:44;22.43;;;17.27;;
22985;SDS011;11659;51.092;7.080;2022-08-18T04:01:11;25.07;;;18.43;;
22985;SDS011;11659;51.092;7.080;2022-08-18T04:03:40;23.83;;;17.20;;
22985;SDS011;11659;51.092;7.080;2022-08-18T04:06:07;24.33;;;18.07;;
22985;SDS011;11659;51.092;7.080;2022-08-18T04:08:33;24.50;;;18.07;;
22985;SDS011;11659;51.092;7.080;2022-08-18T04:10:59;28.80;;;20.13;;
22985;SDS011;11659;51.092;7.080;2022-08-18T04:13:26;29.07;;;19.43;;
22985;SDS011;11659;51.092;7.080;2022-08-18T04:15:52;30.80;;;20.63;;
22985;SDS011;11659;51.092;7.080;2022-08-18T04:18:18;31.47;;;20.93;;
22985;SDS011;11659;51.092;7.080;2022-08-18T04:20:44;34.77;;;22.87;;
22985;SDS011;11659;51.092;7.080;2022-08-18T04:23:11;39.17;;;25.37;;
22985;SDS011;11659;51.092;7.080;2022-08-18T04:25:38;40.77;;;26.53;;
22985;SDS011;11659;51.092;7.080;2022-08-18T04:28:04;40.27;;;26.20;;
22985;SDS011;11659;51.092;7.080;2022-08-18T04:30:31;39.33;;;24.90;;
22985;SDS011;11659;51.092;7.080;2022-08-18T04:32:59;38.87;;;24.63;;
22985;SDS011;11659;51.092;7.080;2022-08-18T04:35:25;43.70;;;25.43;;
22985;SDS011;11659;51.092;7.080;2022-08-18T04:37:53;41.83;;;25.17;;
22985;SDS011;11659;51.092;7.080;2022-08-18T04:40:19;39.93;;;25.20;;
22985;SDS011;11659;51.092;7.080;2022-08-18T04:42:45;36.33;;;23.00;;
22985;SDS011;11659;51.092;7.080;2022-08-18T04:45:11;40.13;;;24.83;;
22985;SDS011;11659;51.092;7.080;2022-08-18T04:47:39;35.73;;;23.70;;
22985;SDS011;11659;51.092;7.080;2022-08-18T04:50:06;38.00;;;24.10;;
22985;SDS011;11659;51.092;7.080;2022-08-18T04:52:33;35.03;;;22.33;;
22985;SDS011;11659;51.092;7.080;2022-08-18T04:55:17;35.83;;;21.63;;
22985;SDS011;11659;51.092;7.080;2022-08-18T04:57:44;38.17;;;23.83;;
22985;SDS011;11659;51.092;7.080;2022-08-18T05:00:10;45.03;;;26.93;;
22985;SDS011;11659;51.092;7.080;2022-08-18T05:02:39;45.20;;;25.87;;
22985;SDS011;11659;51.092;7.080;2022-08-18T05:05:06;45.43;;;26.67;;
22985;SDS011;11659;51.092;7.080;2022-08-18T05:07:32;41.83;;;24.77;;
22985;SDS011;11659;51.092;7.080;2022-08-18T05:09:58;39.07;;;24.90;;
22985;SDS011;11659;51.092;7.080;2022-08-18T05:12:24;38.33;;;23.80;;
22985;SDS011;11659;51.092;7.080;2022-08-18T05:14:51;36.87;;;22.33;;
22985;SDS011;11659;51.092;7.080;2022-08-18T05:17:18;35.00;;;22.07;;
22985;SDS011;11659;51.092;7.080;2022-08-18T05:19:45;33.97;;;21.47;;
22985;SDS011;11659;51.092;7.080;2022-08-18T05:22:11;35.77;;;22.03;;
22985;SDS011;11659;51.092;7.080;2022-08-18T05:24:43;40.20;;;22.77;;
22985;SDS011;11659;51.092;7.080;2022-08-18T05:27:10;40.33;;;25.07;;
22985;SDS011;11659;51.092;7.080;2022-08-18T05:29:37;40.07;;;23.43;;
22985;SDS011;11659;51.092;7.080;2022-08-18T05:32:03;36.40;;;22.27;;
22985;SDS011;11659;51.092;7.080;2022-08-18T05:34:32;39.83;;;24.90;;
22985;SDS011;11659;51.092;7.080;2022-08-18T05:37:07;43.60;;;26.50;;
22985;SDS011;11659;51.092;7.080;2022-08-18T05:39:47;42.83;;;25.70;;
22985;SDS011;11659;51.092;7.080;2022-08-18T05:42:19;43.07;;;26.27;;
22985;SDS011;11659;51.092;7.080;2022-08-18T05:44:47;45.13;;;27.37;;
22985;SDS011;11659;51.092;7.080;2022-08-18T05:47:16;52.80;;;29.43;;
22985;SDS011;11659;51.092;7.080;2022-08-18T05:49:46;55.13;;;30.57;;
22985;SDS011;11659;51.092;7.080;2022-08-18T05:52:15;56.50;;;31.80;;
22985;SDS011;11659;51.092;7.080;2022-08-18T05:54:44;51.97;;;30.40;;
22985;SDS011;11659;51.092;7.080;2022-08-18T05:57:36;53.37;;;30.00;;
22985;SDS011;11659;51.092;7.080;2022-08-18T06:00:06;60.40;;;32.23;;
22985;SDS011;11659;51.092;7.080;2022-08-18T06:02:41;54.30;;;30.20;;
22985;SDS011;11659;51.092;7.080;2022-08-18T06:05:13;56.90;;;30.90;;
22985;SDS011;11659;51.092;7.080;2022-08-18T06:07:50;56.00;;;31.30;;
22985;SDS011;11659;51.092;7.080;2022-08-18T06:10:18;57.90;;;30.33;;
22985;SDS011;11659;51.092;7.080;2022-08-18T06:12:46;59.07;;;31.50;;
22985;SDS011;11659;51.092;7.080;2022-08-18T06:15:16;56.70;;;31.63;;
22985;SDS011;11659;51.092;7.080;2022-08-18T06:23:59;44.60;;;26.10;;
22985;SDS011;11659;51.092;7.080;2022-08-18T06:26:34;41.47;;;24.93;;
22985;SDS011;11659;51.092;7.080;2022-08-18T06:29:12;46.00;;;25.03;;
22985;SDS011;11659;51.092;7.080;2022-08-18T06:31:51;47.27;;;26.87;;
22985;SDS011;11659;51.092;7.080;2022-08-18T06:34:24;47.80;;;27.63;;
22985;SDS011;11659;51.092;7.080;2022-08-18T06:37:03;46.87;;;25.93;;
22985;SDS011;11659;51.092;7.080;2022-08-18T06:39:38;46.77;;;26.27;;
22985;SDS011;11659;51.092;7.080;2022-08-18T06:42:11;43.43;;;26.40;;
22985;SDS011;11659;51.092;7.080;2022-08-18T06:44:41;44.40;;;25.53;;
22985;SDS011;11659;51.092;7.080;2022-08-18T06:47:13;42.33;;;24.20;;
22985;SDS011;11659;51.092;7.080;2022-08-18T06:49:52;38.60;;;23.87;;
22985;SDS011;11659;51.092;7.080;2022-08-18T06:52:25;36.13;;;22.60;;
22985;SDS011;11659;51.092;7.080;2022-08-18T06:54:55;36.83;;;23.13;;
22985;SDS011;11659;51.092;7.080;2022-08-18T06:57:24;37.07;;;21.70;;
22985;SDS011;11659;51.092;7.080;2022-08-18T06:59:54;38.13;;;22.87;;
22985;SDS011;11659;51.092;7.080;2022-08-18T07:02:22;34.50;;;21.70;;
22985;SDS011;11659;51.092;7.080;2022-08-18T07:05:00;36.43;;;23.40;;
22985;SDS011;11659;51.092;7.080;2022-08-18T07:07:30;38.87;;;23.63;;
22985;SDS011;11659;51.092;7.080;2022-08-18T07:10:00;37.53;;;23.80;;
22985;SDS011;11659;51.092;7.080;2022-08-18T07:12:27;38.97;;;23.33;;
22985;SDS011;11659;51.092;7.080;2022-08-18T07:14:55;35.67;;;22.80;;
22985;SDS011;11659;51.092;7.080;2022-08-18T07:17:24;35.50;;;22.63;;
22985;SDS011;11659;51.092;7.080;2022-08-18T07:19:56;34.40;;;22.33;;
22985;SDS011;11659;51.092;7.080;2022-08-18T07:22:29;33.63;;;21.63;;
22985;SDS011;11659;51.092;7.080;2022-08-18T07:24:56;33.03;;;21.13;;
22985;SDS011;11659;51.092;7.080;2022-08-18T07:27:43;32.93;;;20.83;;
22985;SDS011;11659;51.092;7.080;2022-08-18T07:30:24;31.23;;;21.10;;
22985;SDS011;11659;51.092;7.080;2022-08-18T07:32:53;33.37;;;21.47;;
22985;SDS011;11659;51.092;7.080;2022-08-18T07:35:25;33.53;;;21.60;;
22985;SDS011;11659;51.092;7.080;2022-08-18T07:37:57;35.73;;;23.13;;
22985;SDS011;11659;51.092;7.080;2022-08-18T07:40:28;36.00;;;22.33;;
22985;SDS011;11659;51.092;7.080;2022-08-18T07:43:01;35.63;;;21.87;;
22985;SDS011;11659;51.092;7.080;2022-08-18T07:45:35;37.13;;;24.77;;
22985;SDS011;11659;51.092;7.080;2022-08-18T07:48:06;35.93;;;23.30;;
22985;SDS011;11659;51.092;7.080;2022-08-18T07:50:38;36.03;;;23.40;;
22985;SDS011;11659;51.092;7.080;2022-08-18T07:53:11;36.13;;;22.87;;
22985;SDS011;11659;51.092;7.080;2022-08-18T07:55:57;34.13;;;22.47;;
22985;SDS011;11659;51.092;7.080;2022-08-18T07:58:30;37.93;;;23.77;;
22985;SDS011;11659;51.092;7.080;2022-08-18T08:01:02;39.40;;;24.80;;
22985;SDS011;11659;51.092;7.080;2022-08-18T08:03:38;35.67;;;24.70;;
22985;SDS011;11659;51.092;7.080;2022-08-18T08:06:13;37.63;;;24.97;;
22985;SDS011;11659;51.092;7.080;2022-08-18T08:08:46;39.10;;;26.10;;
22985;SDS011;11659;51.092;7.080;2022-08-18T08:11:24;36.40;;;25.47;;
22985;SDS011;11659;51.092;7.080;2022-08-18T08:14:03;34.23;;;24.10;;
22985;SDS011;11659;51.092;7.080;2022-08-18T08:16:39;35.93;;;24.67;;
22985;SDS011;11659;51.092;7.080;2022-08-18T08:19:14;34.03;;;23.77;;
22985;SDS011;11659;51.092;7.080;2022-08-18T08:21:59;33.90;;;23.40;;
22985;SDS011;11659;51.092;7.080;2022-08-18T08:24:30;33.22;;;25.90;;
22985;SDS011;11659;51.092;7.080;2022-08-18T08:27:04;29.77;;;21.40;;
22985;SDS011;11659;51.092;7.080;2022-08-18T08:29:38;25.37;;;19.63;;
22985;SDS011;11659;51.092;7.080;2022-08-18T08:32:13;24.50;;;18.20;;
22985;SDS011;11659;51.092;7.080;2022-08-18T08:34:44;24.07;;;17.80;;
22985;SDS011;11659;51.092;7.080;2022-08-18T08:37:17;22.47;;;17.57;;
22985;SDS011;11659;51.092;7.080;2022-08-18T08:39:46;25.03;;;18.13;;
22985;SDS011;11659;51.092;7.080;2022-08-18T08:42:18;28.00;;;20.17;;
22985;SDS011;11659;51.092;7.080;2022-08-18T08:44:51;30.73;;;21.63;;
22985;SDS011;11659;51.092;7.080;2022-08-18T08:47:23;30.30;;;21.77;;
22985;SDS011;11659;51.092;7.080;2022-08-18T08:49:55;31.47;;;23.50;;
22985;SDS011;11659;51.092;7.080;2022-08-18T08:52:26;29.93;;;22.53;;
22985;SDS011;11659;51.092;7.080;2022-08-18T08:54:57;32.27;;;22.10;;
22985;SDS011;11659;51.092;7.080;2022-08-18T08:57:28;31.00;;;22.77;;
22985;SDS011;11659;51.092;7.080;2022-08-18T08:59:59;28.63;;;21.87;;
22985;SDS011;11659;51.092;7.080;2022-08-18T09:02:36;25.50;;;19.53;;
22985;SDS011;11659;51.092;7.080;2022-08-18T09:05:17;25.50;;;19.23;;
22985;SDS011;11659;51.092;7.080;2022-08-18T09:08:03;22.83;;;18.27;;
22985;SDS011;11659;51.092;7.080;2022-08-18T09:10:47;22.87;;;17.23;;
22985;SDS011;11659;51.092;7.080;2022-08-18T09:13:37;21.60;;;16.60;;
22985;SDS011;11659;51.092;7.080;2022-08-18T09:16:34;19.87;;;16.43;;
22985;SDS011;11659;51.092;7.080;2022-08-18T09:19:17;21.33;;;17.27;;
22985;SDS011;11659;51.092;7.080;2022-08-18T09:22:03;19.17;;;15.80;;
22985;SDS011;11659;51.092;7.080;2022-08-18T09:24:38;19.63;;;15.20;;
22985;SDS011;11659;51.092;7.080;2022-08-18T09:27:11;24.90;;;18.03;;
22985;SDS011;11659;51.092;7.080;2022-08-18T09:29:46;25.20;;;19.97;;
22985;SDS011;11659;51.092;7.080;2022-08-18T09:32:38;21.87;;;17.47;;
22985;SDS011;11659;51.092;7.080;2022-08-18T09:35:22;21.20;;;17.43;;
22985;SDS011;11659;51.092;7.080;2022-08-18T09:37:59;19.77;;;16.50;;
22985;SDS011;11659;51.092;7.080;2022-08-18T09:41:04;19.50;;;16.27;;
22985;SDS011;11659;51.092;7.080;2022-08-18T09:43:54;23.93;;;18.17;;
22985;SDS011;11659;51.092;7.080;2022-08-18T09:46:48;22.30;;;17.83;;
22985;SDS011;11659;51.092;7.080;2022-08-18T09:49:37;20.77;;;17.77;;
22985;SDS011;11659;51.092;7.080;2022-08-18T09:55:38;20.77;;;17.30;;
22985;SDS011;11659;51.092;7.080;2022-08-18T09:58:14;17.77;;;15.13;;
22985;SDS011;11659;51.092;7.080;2022-08-18T10:00:43;17.63;;;15.03;;
22985;SDS011;11659;51.092;7.080;2022-08-18T10:03:10;18.50;;;15.43;;
22985;SDS011;11659;51.092;7.080;2022-08-18T10:06:02;19.90;;;15.53;;
22985;SDS011;11659;51.092;7.080;2022-08-18T10:11:38;14.67;;;13.00;;
22985;SDS011;11659;51.092;7.080;2022-08-18T10:14:19;13.93;;;11.33;;
22985;SDS011;11659;51.092;7.080;2022-08-18T10:17:06;15.83;;;13.00;;
22985;SDS011;11659;51.092;7.080;2022-08-18T10:19:42;14.20;;;12.67;;
22985;SDS011;11659;51.092;7.080;2022-08-18T10:25:14;13.80;;;12.30;;
22985;SDS011;11659;51.092;7.080;2022-08-18T10:27:56;12.40;;;10.80;;
22985;SDS011;11659;51.092;7.080;2022-08-18T10:33:56;10.80;;;9.70;;
22985;SDS011;11659;51.092;7.080;2022-08-18T10:36:39;12.10;;;10.77;;
22985;SDS011;11659;51.092;7.080;2022-08-18T10:39:10;16.60;;;13.77;;
22985;SDS011;11659;51.092;7.080;2022-08-18T10:41:44;15.57;;;12.83;;
22985;SDS011;11659;51.092;7.080;2022-08-18T10:44:17;15.73;;;13.30;;
22985;SDS011;11659;51.092;7.080;2022-08-18T10:46:46;16.17;;;13.17;;
22985;SDS011;11659;51.092;7.080;2022-08-18T10:49:15;14.90;;;12.53;;
22985;SDS011;11659;51.092;7.080;2022-08-18T10:51:53;13.47;;;12.10;;
22985;SDS011;11659;51.092;7.080;2022-08-18T10:55:07;11.77;;;10.57;;
22985;SDS011;11659;51.092;7.080;2022-08-18T10:57:49;15.20;;;12.10;;
22985;SDS011;11659;51.092;7.080;2022-08-18T11:00:43;12.50;;;11.10;;
22985;SDS011;11659;51.092;7.080;2022-08-18T11:03:29;11.53;;;10.33;;
22985;SDS011;11659;51.092;7.080;2022-08-18T11:06:10;11.17;;;10.07;;
22985;SDS011;11659;51.092;7.080;2022-08-18T11:08:42;11.30;;;10.20;;
22985;SDS011;11659;51.092;7.080;2022-08-18T11:11:11;11.33;;;10.10;;
22985;SDS011;11659;51.092;7.080;2022-08-18T11:13:43;13.25;;;11.95;;
22985;SDS011;11659;51.092;7.080;2022-08-18T11:16:24;11.93;;;10.83;;
22985;SDS011;11659;51.092;7.080;2022-08-18T11:19:04;11.47;;;10.37;;
22985;SDS011;11659;51.092;7.080;2022-08-18T11:21:36;11.77;;;10.43;;
22985;SDS011;11659;51.092;7.080;2022-08-18T11:24:06;11.10;;;10.00;;
22985;SDS011;11659;51.092;7.080;2022-08-18T11:26:36;10.80;;;9.70;;
22985;SDS011;11659;51.092;7.080;2022-08-18T11:32:01;10.77;;;9.63;;
22985;SDS011;11659;51.092;7.080;2022-08-18T11:34:36;10.87;;;9.77;;
22985;SDS011;11659;51.092;7.080;2022-08-18T11:37:05;10.20;;;9.13;;
22985;SDS011;11659;51.092;7.080;2022-08-18T11:39:40;9.90;;;8.90;;
22985;SDS011;11659;51.092;7.080;2022-08-18T11:42:13;9.90;;;8.90;;
22985;SDS011;11659;51.092;7.080;2022-08-18T11:44:41;9.87;;;8.93;;
22985;SDS011;11659;51.092;7.080;2022-08-18T11:47:08;9.20;;;8.30;;
22985;SDS011;11659;51.092;7.080;2022-08-18T11:49:43;9.90;;;8.90;;
22985;SDS011;11659;51.092;7.080;2022-08-18T11:52:16;10.43;;;9.33;;
22985;SDS011;11659;51.092;7.080;2022-08-18T11:54:48;10.07;;;9.07;;
22985;SDS011;11659;51.092;7.080;2022-08-18T12:00:41;11.37;;;9.43;;
22985;SDS011;11659;51.092;7.080;2022-08-18T12:03:20;13.17;;;11.77;;
22985;SDS011;11659;51.092;7.080;2022-08-18T12:05:53;11.43;;;10.23;;
22985;SDS011;11659;51.092;7.080;2022-08-18T12:08:22;12.03;;;10.70;;
22985;SDS011;11659;51.092;7.080;2022-08-18T12:11:02;11.43;;;10.33;;
22985;SDS011;11659;51.092;7.080;2022-08-18T12:13:31;11.03;;;9.93;;
22985;SDS011;11659;51.092;7.080;2022-08-18T12:16:08;12.50;;;11.20;;
22985;SDS011;11659;51.092;7.080;2022-08-18T12:18:36;11.97;;;10.17;;
22985;SDS011;11659;51.092;7.080;2022-08-18T12:21:02;10.27;;;9.27;;
22985;SDS011;11659;51.092;7.080;2022-08-18T12:23:28;9.87;;;8.87;;
22985;SDS011;11659;51.092;7.080;2022-08-18T12:25:55;9.37;;;8.47;;
22985;SDS011;11659;51.092;7.080;2022-08-18T12:28:21;9.90;;;8.90;;
22985;SDS011;11659;51.092;7.080;2022-08-18T12:30:47;9.07;;;8.27;;
22985;SDS011;11659;51.092;7.080;2022-08-18T12:33:15;9.37;;;8.47;;
22985;SDS011;11659;51.092;7.080;2022-08-18T12:35:41;10.30;;;9.30;;
22985;SDS011;11659;51.092;7.080;2022-08-18T12:38:08;11.27;;;10.10;;
22985;SDS011;11659;51.092;7.080;2022-08-18T12:40:36;10.53;;;9.13;;
22985;SDS011;11659;51.092;7.080;2022-08-18T12:43:02;10.47;;;9.47;;
22985;SDS011;11659;51.092;7.080;2022-08-18T12:45:28;10.23;;;9.23;;
22985;SDS011;11659;51.092;7.080;2022-08-18T12:47:55;9.60;;;8.70;;
22985;SDS011;11659;51.092;7.080;2022-08-18T12:50:22;10.87;;;9.00;;
22985;SDS011;11659;51.092;7.080;2022-08-18T12:52:49;9.53;;;8.60;;
22985;SDS011;11659;51.092;7.080;2022-08-18T12:55:15;9.70;;;8.80;;
22985;SDS011;11659;51.092;7.080;2022-08-18T12:57:43;9.70;;;8.80;;
22985;SDS011;11659;51.092;7.080;2022-08-18T13:00:09;10.47;;;9.33;;
22985;SDS011;11659;51.092;7.080;2022-08-18T13:02:36;11.20;;;10.10;;
22985;SDS011;11659;51.092;7.080;2022-08-18T13:05:02;10.43;;;9.33;;
22985;SDS011;11659;51.092;7.080;2022-08-18T13:07:30;9.60;;;8.70;;
22985;SDS011;11659;51.092;7.080;2022-08-18T13:09:56;9.77;;;8.87;;
22985;SDS011;11659;51.092;7.080;2022-08-18T13:12:22;10.27;;;8.60;;
22985;SDS011;11659;51.092;7.080;2022-08-18T13:14:50;10.07;;;9.07;;
22985;SDS011;11659;51.092;7.080;2022-08-18T13:17:19;9.60;;;8.57;;
22985;SDS011;11659;51.092;7.080;2022-08-18T13:19:45;9.40;;;8.50;;
22985;SDS011;11659;51.092;7.080;2022-08-18T13:22:11;10.47;;;9.53;;
22985;SDS011;11659;51.092;7.080;2022-08-18T13:24:39;10.63;;;9.53;;
22985;SDS011;11659;51.092;7.080;2022-08-18T13:27:05;11.30;;;10.20;;
22985;SDS011;11659;51.092;7.080;2022-08-18T13:29:31;10.43;;;9.43;;
22985;SDS011;11659;51.092;7.080;2022-08-18T13:31:57;10.30;;;9.33;;
22985;SDS011;11659;51.092;7.080;2022-08-18T13:34:24;9.10;;;8.20;;
22985;SDS011;11659;51.092;7.080;2022-08-18T13:36:51;10.20;;;9.20;;
22985;SDS011;11659;51.092;7.080;2022-08-18T13:39:18;10.47;;;9.43;;
22985;SDS011;11659;51.092;7.080;2022-08-18T13:41:47;9.23;;;8.43;;
22985;SDS011;11659;51.092;7.080;2022-08-18T13:44:16;9.13;;;8.23;;
22985;SDS011;11659;51.092;7.080;2022-08-18T13:46:43;8.83;;;8.03;;
22985;SDS011;11659;51.092;7.080;2022-08-18T13:49:12;9.27;;;8.33;;
22985;SDS011;11659;51.092;7.080;2022-08-18T13:51:40;8.37;;;7.57;;
22985;SDS011;11659;51.092;7.080;2022-08-18T13:54:07;7.23;;;6.53;;
22985;SDS011;11659;51.092;7.080;2022-08-18T13:56:34;8.13;;;7.37;;
22985;SDS011;11659;51.092;7.080;2022-08-18T13:59:03;7.90;;;7.20;;
22985;SDS011;11659;51.092;7.080;2022-08-18T14:01:29;7.93;;;7.20;;
22985;SDS011;11659;51.092;7.080;2022-08-18T14:03:56;8.03;;;7.30;;
22985;SDS011;11659;51.092;7.080;2022-08-18T14:06:22;8.00;;;7.20;;
22985;SDS011;11659;51.092;7.080;2022-08-18T14:08:48;9.20;;;8.40;;
22985;SDS011;11659;51.092;7.080;2022-08-18T14:11:14;8.97;;;8.17;;
22985;SDS011;11659;51.092;7.080;2022-08-18T14:13:41;8.87;;;7.90;;
22985;SDS011;11659;51.092;7.080;2022-08-18T14:16:10;8.87;;;8.07;;
22985;SDS011;11659;51.092;7.080;2022-08-18T14:18:36;8.83;;;8.00;;
22985;SDS011;11659;51.092;7.080;2022-08-18T14:21:02;8.90;;;8.13;;
22985;SDS011;11659;51.092;7.080;2022-08-18T14:23:47;9.30;;;8.40;;
22985;SDS011;11659;51.092;7.080;2022-08-18T14:26:32;9.50;;;8.70;;
22985;SDS011;11659;51.092;7.080;2022-08-18T14:29:13;9.53;;;8.60;;
22985;SDS011;11659;51.092;7.080;2022-08-18T14:31:41;9.00;;;8.20;;
22985;SDS011;11659;51.092;7.080;2022-08-18T14:34:07;9.13;;;8.30;;
22985;SDS011;11659;51.092;7.080;2022-08-18T14:36:34;9.53;;;8.63;;
22985;SDS011;11659;51.092;7.080;2022-08-18T14:39:00;9.17;;;8.37;;
22985;SDS011;11659;51.092;7.080;2022-08-18T14:41:27;9.40;;;8.60;;
22985;SDS011;11659;51.092;7.080;2022-08-18T14:43:54;9.03;;;8.23;;
22985;SDS011;11659;51.092;7.080;2022-08-18T14:46:20;9.90;;;9.03;;
22985;SDS011;11659;51.092;7.080;2022-08-18T14:48:48;10.40;;;9.50;;
22985;SDS011;11659;51.092;7.080;2022-08-18T14:51:14;11.10;;;10.10;;
22985;SDS011;11659;51.092;7.080;2022-08-18T14:53:40;10.23;;;9.33;;
22985;SDS011;11659;51.092;7.080;2022-08-18T14:56:06;10.50;;;9.57;;
22985;SDS011;11659;51.092;7.080;2022-08-18T14:58:32;10.87;;;9.87;;
22985;SDS011;11659;51.092;7.080;2022-08-18T15:00:59;11.30;;;10.30;;
22985;SDS011;11659;51.092;7.080;2022-08-18T15:03:29;10.20;;;9.30;;
22985;SDS011;11659;51.092;7.080;2022-08-18T15:05:56;10.80;;;9.80;;
22985;SDS011;11659;51.092;7.080;2022-08-18T15:08:24;11.00;;;10.00;;
22985;SDS011;11659;51.092;7.080;2022-08-18T15:10:50;11.17;;;10.27;;
22985;SDS011;11659;51.092;7.080;2022-08-18T15:13:16;10.87;;;9.77;;